createdAt,value
2022-08-23T00:01:57.323Z,98050.72
2022-08-23T00:04:30.414Z,98054.63
2022-08-23T00:07:02.049Z,98051.88
2022-08-23T00:09:31.351Z,98051.34
2022-08-23T00:12:09.875Z,98046.34
2022-08-23T00:14:38.192Z,98041.94
2022-08-23T00:17:05.677Z,98048.28
2022-08-23T00:19:33.077Z,98047.47
2022-08-23T00:22:00.155Z,98045.81
2022-08-23T00:24:27.262Z,98058.53
2022-08-23T00:27:11.827Z,98050.22
2022-08-23T00:29:40.000Z,98048.56
2022-08-23T00:32:08.743Z,98051.34
2022-08-23T00:34:36.411Z,98045.00
2022-08-23T00:37:03.871Z,98058.81
2022-08-23T00:39:30.842Z,98058.31
2022-08-23T00:42:29.134Z,98058.59
2022-08-23T00:45:14.689Z,98059.94
2022-08-23T00:47:43.125Z,98059.09
2022-08-23T00:50:27.071Z,98059.09
2022-08-23T00:53:06.083Z,98060.25
2022-08-23T00:55:33.994Z,98063.03
2022-08-23T00:58:01.476Z,98068.56
2022-08-23T01:00:28.944Z,98061.09
2022-08-23T01:02:57.338Z,98061.09
2022-08-23T01:05:35.042Z,98067.72
2022-08-23T01:08:02.128Z,98066.91
2022-08-23T01:11:04.675Z,98063.31
2022-08-23T01:14:02.208Z,98061.38
2022-08-23T01:17:01.997Z,98070.50
2022-08-23T01:20:13.844Z,98075.19
2022-08-23T01:23:10.766Z,98077.97
2022-08-23T01:25:57.424Z,98080.19
2022-08-23T01:28:24.850Z,98075.50
2022-08-23T01:30:52.351Z,98074.66
2022-08-23T01:33:19.852Z,98080.19
2022-08-23T01:35:51.875Z,98076.31
2022-08-23T01:38:18.850Z,98075.81
2022-08-23T01:40:45.796Z,98072.22
2022-08-23T01:43:13.777Z,98073.84
2022-08-23T01:45:40.662Z,98077.44
2022-08-23T01:48:08.540Z,98070.28
2022-08-23T01:53:02.470Z,98061.47
2022-08-23T01:55:29.616Z,98066.69
2022-08-23T01:57:57.985Z,98060.34
2022-08-23T02:00:27.402Z,98065.34
2022-08-23T02:02:54.313Z,98057.06
2022-08-23T02:05:21.243Z,98056.22
2022-08-23T02:07:48.335Z,98071.41
2022-08-23T02:10:15.766Z,98075.28
2022-08-23T02:12:42.675Z,98072.00
2022-08-23T02:15:09.948Z,98065.34
2022-08-23T02:17:37.229Z,98062.59
2022-08-23T02:20:05.651Z,98064.53
2022-08-23T02:22:33.680Z,98078.34
2022-08-23T02:25:03.559Z,98083.88
2022-08-23T02:27:30.461Z,98082.25
2022-08-23T02:30:00.062Z,98088.59
2022-08-23T02:32:29.044Z,98083.06
2022-08-23T02:35:05.012Z,98075.38
2022-08-23T02:37:33.481Z,98072.41
2022-08-23T02:40:00.691Z,98079.06
2022-08-23T02:42:28.035Z,98085.41
2022-08-23T02:44:55.674Z,98083.75
2022-08-23T02:47:23.931Z,98096.38
2022-08-23T02:49:52.012Z,98083.66
2022-08-23T02:52:18.976Z,98088.09
2022-08-23T02:54:45.902Z,98091.66
2022-08-23T02:57:13.369Z,98084.50
2022-08-23T02:59:40.319Z,98082.63
2022-08-23T03:02:07.358Z,98080.16
2022-08-23T03:04:34.338Z,98088.38
2022-08-23T03:07:01.274Z,98082.03
2022-08-23T03:09:28.277Z,98091.47
2022-08-23T03:11:55.225Z,98094.72
2022-08-23T03:14:24.852Z,98093.91
2022-08-23T03:16:52.103Z,98092.88
2022-08-23T03:19:19.217Z,98096.47
2022-08-23T03:21:46.303Z,98101.69
2022-08-23T03:24:13.873Z,98089.59
2022-08-23T03:26:44.809Z,98094.53
2022-08-23T03:29:12.499Z,98097.56
2022-08-23T03:31:42.273Z,98087.88
2022-08-23T03:34:09.330Z,98094.53
2022-08-23T03:36:36.257Z,98098.09
2022-08-23T03:39:03.668Z,98107.22
2022-08-23T03:41:30.539Z,98103.63
2022-08-23T03:43:57.529Z,98095.34
2022-08-23T03:46:24.625Z,98095.97
2022-08-23T03:48:56.862Z,98092.59
2022-08-23T03:51:24.012Z,98097.28
2022-08-23T03:53:50.966Z,98105.56
2022-08-23T03:56:33.565Z,98109.47
2022-08-23T03:59:05.771Z,98104.25
2022-08-23T04:01:32.748Z,98110.91
2022-08-23T04:04:00.321Z,98118.06
2022-08-23T04:06:27.983Z,98121.63
2022-08-23T04:08:55.100Z,98132.69
2022-08-23T04:11:22.640Z,98130.75
2022-08-23T04:13:50.003Z,98129.41
2022-08-23T04:16:19.155Z,98136.28
2022-08-23T04:18:46.129Z,98135.78
2022-08-23T04:21:15.075Z,98138.00
2022-08-23T04:23:42.030Z,98147.66
2022-08-23T04:26:09.872Z,98136.88
2022-08-23T04:28:37.035Z,98141.31
2022-08-23T04:31:04.903Z,98128.59
2022-08-23T04:33:33.060Z,98131.91
2022-08-23T04:36:01.146Z,98132.19
2022-08-23T04:38:28.251Z,98138.53
2022-08-23T04:41:13.853Z,98136.88
2022-08-23T04:43:41.209Z,98138.53
2022-08-23T04:46:08.098Z,98136.88
2022-08-23T04:48:35.765Z,98144.34
2022-08-23T04:51:03.189Z,98149.88
2022-08-23T04:53:30.707Z,98146.28
2022-08-23T04:55:57.616Z,98144.34
2022-08-23T04:58:24.562Z,98147.13
2022-08-23T05:00:54.752Z,98147.94
2022-08-23T05:03:21.741Z,98147.94
2022-08-23T05:05:48.661Z,98147.41
2022-08-23T05:08:15.971Z,98139.13
2022-08-23T05:10:42.930Z,98146.28
2022-08-23T05:13:09.944Z,98150.72
2022-08-23T05:15:36.950Z,98152.66
2022-08-23T05:18:04.009Z,98159.81
2022-08-23T05:20:31.566Z,98152.66
2022-08-23T05:22:59.957Z,98153.75
2022-08-23T05:25:46.875Z,98166.47
2022-08-23T05:28:13.878Z,98171.16
2022-08-23T05:30:41.719Z,98169.53
2022-08-23T05:33:16.401Z,98173.09
2022-08-23T05:35:43.447Z,98176.69
2022-08-23T05:38:10.360Z,98184.16
2022-08-23T05:40:37.362Z,98179.47
2022-08-23T05:43:05.433Z,98178.63
2022-08-23T05:45:32.395Z,98180.28
2022-08-23T05:47:59.349Z,98188.88
2022-08-23T05:50:26.417Z,98186.63
2022-08-23T05:52:53.343Z,98187.75
2022-08-23T05:55:20.218Z,98182.22
2022-08-23T05:57:50.553Z,98184.50
2022-08-23T06:00:17.480Z,98181.19
2022-08-23T06:02:44.562Z,98195.22
2022-08-23T06:05:11.484Z,98194.41
2022-08-23T06:07:38.491Z,98188.88
2022-08-23T06:10:05.879Z,98199.41
2022-08-23T06:12:33.143Z,98195.53
2022-08-23T06:15:00.963Z,98198.31
2022-08-23T06:17:28.537Z,98192.78
2022-08-23T06:19:55.549Z,98198.31
2022-08-23T06:22:22.547Z,98203.84
2022-08-23T06:24:49.617Z,98204.66
2022-08-23T06:27:16.714Z,98210.19
2022-08-23T06:29:43.838Z,98204.66
2022-08-23T06:32:10.825Z,98205.44
2022-08-23T06:34:38.224Z,98216.50
2022-08-23T06:37:12.393Z,98210.97
2022-08-23T06:39:39.318Z,98216.50
2022-08-23T06:42:37.338Z,98210.19
2022-08-23T06:45:03.860Z,98209.03
2022-08-23T06:47:31.841Z,98222.03
2022-08-23T06:49:59.176Z,98218.75
2022-08-23T06:52:27.728Z,98230.31
2022-08-23T06:54:54.773Z,98226.78
2022-08-23T06:57:21.756Z,98227.56
2022-08-23T06:59:50.031Z,98226.44
2022-08-23T07:02:17.016Z,98230.66
2022-08-23T07:04:44.092Z,98236.69
2022-08-23T07:07:12.137Z,98224.81
2022-08-23T07:09:39.536Z,98231.16
2022-08-23T07:12:06.815Z,98225.63
2022-08-23T07:14:33.801Z,98231.16
2022-08-23T07:17:02.007Z,98229.22
2022-08-23T07:19:31.260Z,98227.56
2022-08-23T07:21:59.612Z,98227.56
2022-08-23T07:24:30.761Z,98231.47
2022-08-23T07:26:59.934Z,98235.06
2022-08-23T07:29:26.893Z,98223.19
2022-08-23T07:31:55.327Z,98237.81
2022-08-23T07:34:22.658Z,98225.94
2022-08-23T07:36:49.784Z,98226.78
2022-08-23T07:39:19.229Z,98229.53
2022-08-23T07:41:47.026Z,98232.28
2022-08-23T07:44:18.018Z,98238.63
2022-08-23T07:46:46.328Z,98244.97
2022-08-23T07:49:13.409Z,98244.16
2022-08-23T07:51:41.073Z,98238.63
2022-08-23T07:54:09.633Z,98246.91
2022-08-23T07:56:36.615Z,98238.63
2022-08-23T07:59:04.652Z,98244.16
2022-08-23T08:01:31.637Z,98243.34
2022-08-23T08:04:00.375Z,98249.69
2022-08-23T08:06:30.196Z,98244.16
2022-08-23T08:08:57.823Z,98248.88
2022-08-23T08:11:30.905Z,98256.09
2022-08-23T08:14:06.146Z,98263.50
2022-08-23T08:16:44.243Z,98256.03
2022-08-23T08:19:12.703Z,98266.25
2022-08-23T08:21:42.614Z,98262.38
2022-08-23T08:24:10.691Z,98267.91
2022-08-23T08:26:37.771Z,98267.09
2022-08-23T08:29:05.446Z,98269.03
2022-08-23T08:31:32.572Z,98278.13
2022-08-23T08:33:59.741Z,98278.97
2022-08-23T08:36:30.578Z,98288.09
2022-08-23T08:39:00.767Z,98290.03
2022-08-23T08:41:48.734Z,98293.31
2022-08-23T08:44:36.410Z,98295.25
2022-08-23T08:47:11.586Z,98296.09
2022-08-23T08:50:02.008Z,98298.84
2022-08-23T08:52:40.429Z,98294.16
2022-08-23T08:55:15.020Z,98293.31
2022-08-23T08:57:45.258Z,98293.31
2022-08-23T09:00:14.127Z,98293.31
2022-08-23T09:02:41.306Z,98297.19
2022-08-23T09:05:12.197Z,98288.91
2022-08-23T09:07:44.640Z,98296.09
2022-08-23T09:10:20.278Z,98293.31
2022-08-23T09:13:14.889Z,98300.50
2022-08-23T09:15:55.224Z,98302.13
2022-08-23T09:18:24.140Z,98318.72
2022-08-23T09:20:53.082Z,98306.03
2022-08-23T09:23:26.416Z,98306.81
2022-08-23T09:26:02.638Z,98306.81
2022-08-23T09:28:31.725Z,98302.13
2022-08-23T09:30:59.542Z,98307.66
2022-08-23T09:33:43.667Z,98315.94
2022-08-23T09:36:23.272Z,98321.19
2022-08-23T09:39:04.698Z,98319.25
2022-08-23T09:41:36.976Z,98312.88
2022-08-23T09:44:08.533Z,98317.59
2022-08-23T09:46:39.370Z,98319.53
2022-08-23T09:49:35.596Z,98323.13
2022-08-23T09:52:12.920Z,98326.44
2022-08-23T09:54:57.090Z,98322.00
2022-08-23T09:57:27.870Z,98315.38
2022-08-23T09:59:56.610Z,98317.31
2022-08-23T10:02:27.176Z,98317.00
2022-08-23T10:04:54.335Z,98319.75
2022-08-23T10:07:34.238Z,98317.81
2022-08-23T10:10:43.711Z,98318.63
2022-08-23T10:13:15.099Z,98326.94
2022-08-23T10:15:53.857Z,98327.22
2022-08-23T10:18:41.889Z,98331.63
2022-08-23T10:21:24.256Z,98331.63
2022-08-23T10:23:55.184Z,98330.81
2022-08-23T10:26:35.319Z,98329.19
2022-08-23T10:29:40.502Z,98329.19
2022-08-23T10:32:16.681Z,98336.34
2022-08-23T10:34:53.701Z,98325.38
2022-08-23T10:37:34.116Z,98342.69
2022-08-23T10:40:29.035Z,98337.16
2022-08-23T10:43:13.359Z,98341.59
2022-08-23T10:45:42.020Z,98338.81
2022-08-23T10:48:29.427Z,98350.69
2022-08-23T10:51:00.465Z,98343.50
2022-08-23T10:53:35.586Z,98342.69
2022-08-23T10:56:06.285Z,98344.63
2022-08-23T10:58:42.479Z,98349.03
2022-08-23T11:01:10.153Z,98344.34
2022-08-23T11:03:45.235Z,98339.94
2022-08-23T11:06:44.713Z,98339.94
2022-08-23T11:09:17.583Z,98338.81
2022-08-23T11:11:46.912Z,98340.47
2022-08-23T11:14:37.067Z,98341.28
2022-08-23T11:17:06.211Z,98346.81
2022-08-23T11:19:51.798Z,98345.69
2022-08-23T11:22:22.847Z,98350.91
2022-08-23T11:24:58.186Z,98351.75
2022-08-23T11:27:41.578Z,98347.03
2022-08-23T11:30:33.391Z,98353.41
2022-08-23T11:33:03.522Z,98350.63
2022-08-23T11:35:43.270Z,98347.88
2022-08-23T11:38:11.163Z,98345.09
2022-08-23T11:40:57.144Z,98353.06
2022-08-23T11:43:34.495Z,98344.00
2022-08-23T11:46:21.409Z,98338.97
2022-08-23T11:48:55.938Z,98346.16
2022-08-23T11:51:41.261Z,98348.63
2022-08-23T11:54:29.881Z,98352.19
2022-08-23T11:57:11.900Z,98348.31
2022-08-23T12:00:26.910Z,98351.06
2022-08-23T12:03:09.131Z,98344.44
2022-08-23T12:05:39.602Z,98346.06
2022-08-23T12:08:06.721Z,98352.44
2022-08-23T12:10:42.542Z,98351.28
2022-08-23T12:13:18.781Z,98354.88
2022-08-23T12:16:16.872Z,98357.97
2022-08-23T12:18:47.722Z,98355.41
2022-08-23T12:21:38.647Z,98358.19
2022-08-23T12:24:35.759Z,98364.22
2022-08-23T12:27:30.518Z,98367.81
2022-08-23T12:30:08.564Z,98362.81
2022-08-23T12:32:42.413Z,98355.34
2022-08-23T12:35:27.608Z,98353.09
2022-08-23T12:38:01.754Z,98353.09
2022-08-23T12:41:00.334Z,98346.16
2022-08-23T12:43:29.215Z,98349.44
2022-08-23T12:45:56.857Z,98349.44
2022-08-23T12:48:28.682Z,98347.19
2022-08-23T12:51:00.953Z,98346.09
2022-08-23T12:53:39.314Z,98346.63
2022-08-23T12:56:20.000Z,98349.91
2022-08-23T12:58:52.265Z,98352.69
2022-08-23T13:01:24.913Z,98359.25
2022-08-23T13:04:05.383Z,98358.97
2022-08-23T13:06:36.337Z,98352.63
2022-08-23T13:09:06.342Z,98358.34
2022-08-23T13:11:34.264Z,98355.28
2022-08-23T13:14:01.491Z,98362.47
2022-08-23T13:16:37.393Z,98365.75
2022-08-23T13:19:13.746Z,98363.81
2022-08-23T13:21:40.690Z,98354.69
2022-08-23T13:24:37.613Z,98358.78
2022-08-23T13:27:17.709Z,98351.59
2022-08-23T13:29:52.423Z,98350.50
2022-08-23T13:32:29.254Z,98350.50
2022-08-23T13:34:56.850Z,98345.78
2022-08-23T13:37:30.888Z,98354.06
2022-08-23T13:40:06.219Z,98350.19
2022-08-23T13:42:50.951Z,98349.38
2022-08-23T13:45:25.792Z,98343.84
2022-08-23T13:47:56.992Z,98347.13
2022-08-23T13:50:42.123Z,98338.31
2022-08-23T13:53:16.967Z,98339.97
2022-08-23T13:55:49.129Z,98343.53
2022-08-23T13:58:33.125Z,98350.19
2022-08-23T14:01:00.811Z,98336.66
2022-08-23T14:03:28.839Z,98342.72
2022-08-23T14:05:55.752Z,98344.38
2022-08-23T14:08:22.733Z,98352.66
2022-08-23T14:10:49.637Z,98357.06
2022-08-23T14:13:16.836Z,98340.47
2022-08-23T14:16:33.011Z,98337.69
2022-08-23T14:18:32.473Z,98348.75
2022-08-23T14:20:59.514Z,98339.63
2022-08-23T14:23:27.019Z,98339.63
2022-08-23T14:25:55.371Z,98340.16
2022-08-23T14:28:23.186Z,98340.16
2022-08-23T14:30:51.663Z,98332.69
2022-08-23T14:33:21.801Z,98329.94
2022-08-23T14:35:49.454Z,98333.81
2022-08-23T14:38:17.788Z,98336.28
2022-08-23T14:40:59.252Z,98330.75
2022-08-23T14:43:26.927Z,98332.41
2022-08-23T14:45:54.397Z,98326.53
2022-08-23T14:48:21.488Z,98342.03
2022-08-23T14:50:48.435Z,98324.38
2022-08-23T14:53:25.861Z,98332.00
2022-08-23T14:56:12.240Z,98333.66
2022-08-23T14:58:42.055Z,98331.91
2022-08-23T15:01:09.642Z,98328.31
2022-08-23T15:03:36.630Z,98332.22
2022-08-23T15:06:03.642Z,98338.06
2022-08-23T15:08:30.517Z,98330.34
2022-08-23T15:13:55.252Z,98345.22
2022-08-23T15:16:22.645Z,98352.13
2022-08-23T15:18:50.636Z,98351.50
2022-08-23T15:21:17.770Z,98353.34
2022-08-23T15:23:44.752Z,98358.31
2022-08-23T15:26:11.818Z,98360.53
2022-08-23T15:28:38.888Z,98364.44
2022-08-23T15:31:06.133Z,98362.78
2022-08-23T15:33:33.839Z,98369.97
2022-08-23T15:36:02.227Z,98373.28
2022-08-23T15:38:31.283Z,98373.47
2022-08-23T15:40:58.288Z,98378.81
2022-08-23T15:43:30.094Z,98383.72
2022-08-23T15:46:04.823Z,98387.59
2022-08-23T15:48:37.901Z,98386.78
2022-08-23T15:51:06.005Z,98386.28
2022-08-23T15:53:33.370Z,98382.41
2022-08-23T15:56:05.124Z,98383.31
2022-08-23T15:58:32.689Z,98388.84
2022-08-23T16:00:59.612Z,98386.06
2022-08-23T16:03:26.609Z,98394.97
2022-08-23T16:05:54.056Z,98381.66
2022-08-23T16:08:22.211Z,98384.41
2022-08-23T16:10:49.205Z,98382.25
2022-08-23T16:13:16.165Z,98391.69
2022-08-23T16:15:43.074Z,98395.78
2022-08-23T16:18:10.661Z,98397.72
2022-08-23T16:20:39.040Z,98401.63
2022-08-23T16:23:05.977Z,98402.97
2022-08-23T16:25:32.945Z,98401.31
2022-08-23T16:27:59.802Z,98396.59
2022-08-23T16:30:29.283Z,98398.03
2022-08-23T16:32:57.040Z,98395.03
2022-08-23T16:35:24.125Z,98392.25
2022-08-23T16:37:51.009Z,98393.41
2022-08-23T16:40:18.347Z,98399.03
2022-08-23T16:42:45.318Z,98411.13
2022-08-23T16:45:12.458Z,98411.97
2022-08-23T16:47:42.958Z,98411.75
2022-08-23T16:50:12.101Z,98412.53
2022-08-23T16:52:39.045Z,98419.44
2022-08-23T16:55:07.889Z,98423.31
2022-08-23T16:57:34.799Z,98428.25
2022-08-23T17:00:02.365Z,98425.47
2022-08-23T17:02:33.599Z,98425.47
2022-08-23T17:05:00.754Z,98423.84
2022-08-23T17:07:27.637Z,98432.16
2022-08-23T17:09:54.551Z,98428.84
2022-08-23T17:12:21.560Z,98436.03
2022-08-23T17:14:50.924Z,98439.94
2022-08-23T17:17:20.239Z,98433.88
2022-08-23T17:19:47.074Z,98437.75
2022-08-23T17:22:14.008Z,98444.13
2022-08-23T17:24:41.008Z,98452.50
2022-08-23T17:27:07.993Z,98460.47
2022-08-23T17:29:37.594Z,98459.44
2022-08-23T18:09:43.753Z,98495.75
2022-08-23T18:12:37.702Z,98491.63
2022-08-23T18:15:37.039Z,98502.91
2022-08-23T18:18:04.844Z,98494.78
2022-08-23T18:20:33.885Z,98500.53
2022-08-23T18:23:04.137Z,98520.66
2022-08-23T18:25:34.975Z,98510.97
2022-08-23T18:28:10.076Z,98510.16
2022-08-23T18:31:04.766Z,98520.88
2022-08-23T18:33:47.068Z,98516.81
2022-08-23T18:36:17.175Z,98528.34
2022-08-23T18:38:45.201Z,98536.38
2022-08-23T18:41:14.236Z,98533.59
2022-08-23T18:43:42.275Z,98528.41
2022-08-23T18:46:11.366Z,98531.78
2022-08-23T18:48:40.393Z,98547.72
2022-08-23T18:51:17.770Z,98521.84
2022-08-23T18:53:46.446Z,98531.78
2022-08-23T18:56:14.504Z,98542.53
2022-08-23T18:59:07.542Z,98548.34
2022-08-23T19:01:40.696Z,98541.72
2022-08-23T19:04:09.805Z,98535.06
2022-08-23T19:06:38.703Z,98534.84
2022-08-23T19:09:07.867Z,98538.94
2022-08-23T19:11:40.770Z,98532.38
2022-08-23T19:14:10.839Z,98540.16
2022-08-23T19:16:48.334Z,98535.13
2022-08-23T19:19:16.655Z,98547.84
2022-08-23T19:22:10.002Z,98548.91
2022-08-23T19:24:38.063Z,98548.47
2022-08-23T19:27:06.057Z,98554.81
2022-08-23T19:29:34.121Z,98555.72
2022-08-23T19:32:02.170Z,98562.06
2022-08-23T19:34:30.212Z,98578.97
2022-08-23T19:37:01.146Z,98580.31
2022-08-23T19:39:30.312Z,98594.41
2022-08-23T19:41:59.396Z,98596.03
2022-08-23T19:44:29.124Z,98591.91
2022-08-23T19:46:57.500Z,98602.69
2022-08-23T19:49:25.479Z,98607.09
2022-08-23T19:51:53.522Z,98606.63
2022-08-23T19:54:21.579Z,98607.75
2022-08-23T19:56:52.617Z,98621.53
2022-08-23T19:59:25.657Z,98625.41
2022-08-23T20:01:53.957Z,98628.19
2022-08-23T20:04:27.630Z,98615.22
2022-08-23T20:06:56.807Z,98617.41
2022-08-23T20:09:25.842Z,98609.41
2022-08-23T20:11:53.870Z,98608.84
2022-08-23T20:14:22.938Z,98612.16
2022-08-23T20:16:51.024Z,98611.78
2022-08-23T20:19:22.399Z,98606.63
2022-08-23T20:21:50.058Z,98611.00
2022-08-23T20:24:25.539Z,98621.91
2022-08-23T20:26:56.162Z,98615.56
2022-08-23T20:29:24.191Z,98628.00
2022-08-23T20:32:06.239Z,98629.59
2022-08-23T20:34:34.087Z,98627.41
2022-08-23T20:37:06.334Z,98619.97
2022-08-23T20:39:34.178Z,98622.97
2022-08-23T20:42:01.431Z,98632.44
2022-08-23T20:44:30.467Z,98633.00
2022-08-23T20:47:02.649Z,98636.91
2022-08-23T20:49:30.567Z,98641.84
2022-08-23T20:51:57.525Z,98634.94
2022-08-23T20:54:26.627Z,98621.09
2022-08-23T20:56:53.667Z,98628.00
2022-08-23T20:59:21.728Z,98626.94
2022-08-23T21:01:49.829Z,98636.06
2022-08-23T21:04:17.860Z,98621.47
2022-08-23T21:06:48.842Z,98625.06
2022-08-23T21:09:22.898Z,98622.28
2022-08-23T21:11:51.934Z,98625.34
2022-08-23T21:14:19.973Z,98631.16
2022-08-23T21:16:48.018Z,98623.19
2022-08-23T21:19:15.276Z,98621.53
2022-08-23T21:21:43.109Z,98628.41
2022-08-23T21:24:11.422Z,98620.63
2022-08-23T21:26:38.725Z,98613.81
2022-08-23T21:29:06.496Z,98613.22
2022-08-23T21:31:34.614Z,98614.88
2022-08-23T21:34:02.593Z,98604.63
2022-08-23T21:36:30.626Z,98608.75
2022-08-23T21:38:58.657Z,98607.09
2022-08-23T21:41:39.703Z,98610.91
2022-08-23T21:44:09.772Z,98614.28
2022-08-23T21:46:37.873Z,98605.22
2022-08-23T21:49:05.832Z,98601.31
2022-08-23T21:51:34.844Z,98600.50
2022-08-23T21:54:02.935Z,98601.09
2022-08-23T21:56:30.958Z,98614.94
2022-08-23T21:59:01.815Z,98616.00
2022-08-23T22:01:31.100Z,98615.72
2022-08-23T22:03:58.349Z,98606.88
2022-08-23T22:06:25.498Z,98598.28
2022-08-23T22:08:52.569Z,98594.97
2022-08-23T22:11:20.209Z,98598.28
2022-08-23T22:13:48.315Z,98592.19
2022-08-23T22:16:16.358Z,98594.13
2022-08-23T22:18:44.132Z,98588.59
2022-08-23T22:21:11.286Z,98600.00
2022-08-23T22:23:42.426Z,98596.63
2022-08-23T22:26:10.471Z,98595.78
2022-08-23T22:28:38.508Z,98592.50
2022-08-23T22:31:06.649Z,98583.06
2022-08-23T22:33:34.585Z,98602.16
2022-08-23T22:36:06.648Z,98596.91
2022-08-23T22:38:33.876Z,98595.28
2022-08-23T22:41:01.719Z,98592.81
2022-08-23T22:43:28.756Z,98596.91
2022-08-23T22:45:57.873Z,98594.69
2022-08-23T22:48:25.887Z,98591.38
2022-08-23T22:51:07.914Z,98593.03
2022-08-23T22:53:36.952Z,98590.53
2022-08-23T22:56:05.007Z,98589.97
2022-08-23T22:58:33.040Z,98590.47
2022-08-23T23:01:03.757Z,98583.91
2022-08-23T23:03:38.175Z,98585.56
2022-08-23T23:06:09.165Z,98577.84
2022-08-23T23:08:37.213Z,98573.44
2022-08-23T23:11:09.257Z,98587.22
2022-08-23T23:13:37.291Z,98578.97
2022-08-23T23:16:09.337Z,98582.25
2022-08-23T23:18:37.391Z,98582.25
2022-08-23T23:21:05.344Z,98577.84
2022-08-23T23:23:34.488Z,98582.84
2022-08-23T23:26:03.537Z,98583.38
2022-08-23T23:28:31.542Z,98586.66
2022-08-23T23:30:59.833Z,98587.50
2022-08-23T23:33:28.634Z,98590.53
2022-08-23T23:35:56.680Z,98594.97
2022-08-23T23:38:24.746Z,98595.56
2022-08-23T23:40:52.768Z,98576.81
2022-08-23T23:43:20.424Z,98588.91
2022-08-23T23:45:47.875Z,98598.56
2022-08-23T23:48:15.173Z,98594.69
2022-08-23T23:50:46.466Z,98582.84
2022-08-23T23:53:14.873Z,98597.72
2022-08-23T23:55:42.871Z,98591.69
2022-08-23T23:58:11.057Z,98588.38
